Time;durP1;ratioP1;P1;durP2;ratioP2;P2;SDS_P1;SDS_P2;PMS_P1;PMS_P2;Temp;Humidity;BMP_temperature;BMP_pressure;BME280_temperature;BME280_humidity;BME280_pressure;Samples;Min_cycle;Max_cycle;Signal;HPM_P1;HPM_P2
2023/07/15 00:00:23;;;;;;;7.35;2.63;;;23.00;61.00;;;;;;5093275;28;20048;-77
2023/07/15 00:02:50;;;;;;;6.55;2.75;;;23.00;61.40;;;;;;5093014;28;20042;-77
2023/07/15 00:05:22;;;;;;;3.63;2.30;;;23.00;60.90;;;;;;5094152;28;20021;-77
2023/07/15 00:07:48;;;;;;;3.28;2.20;;;23.00;60.60;;;;;;5093000;28;20029;-77
2023/07/15 00:10:15;;;;;;;3.80;2.63;;;23.00;61.00;;;;;;5092956;28;20024;-77
2023/07/15 00:12:41;;;;;;;4.18;2.40;;;23.00;61.10;;;;;;5092970;28;20021;-77
2023/07/15 00:15:09;;;;;;;3.88;2.25;;;23.00;60.50;;;;;;5076130;28;20084;-77
2023/07/15 00:17:35;;;;;;;3.90;2.40;;;23.00;60.80;;;;;;5092874;28;20036;-77
2023/07/15 00:20:00;;;;;;;4.00;2.75;;;23.00;60.70;;;;;;5093777;28;20024;-77
2023/07/15 00:22:26;;;;;;;4.85;2.25;;;23.00;60.50;;;;;;5092642;28;20032;-77
2023/07/15 00:24:52;;;;;;;4.35;2.47;;;23.00;60.20;;;;;;5092698;28;20032;-77
2023/07/15 00:27:17;;;;;;;4.63;2.25;;;23.00;60.20;;;;;;5092647;28;20048;-76
2023/07/15 00:29:43;;;;;;;4.00;2.30;;;23.00;59.50;;;;;;5092679;28;20108;-77
2023/07/15 00:32:12;;;;;;;5.93;2.50;;;23.00;59.70;;;;;;5075930;28;20013;-77
2023/07/15 00:34:37;;;;;;;4.45;2.50;;;23.00;59.60;;;;;;5092451;28;20391;-77
2023/07/15 00:37:03;;;;;;;5.45;2.10;;;23.00;59.80;;;;;;5092427;28;20096;-77
2023/07/15 00:39:29;;;;;;;3.15;2.65;;;23.00;59.80;;;;;;5093509;28;20044;-77
2023/07/15 00:41:58;;;;;;;3.33;2.00;;;23.00;59.60;;;;;;5092450;28;20060;-78
2023/07/15 00:44:24;;;;;;;2.92;2.35;;;23.00;59.40;;;;;;5075630;28;20024;-77
2023/07/15 00:47:08;;;;;;;7.35;2.53;;;23.00;59.70;;;;;;5093127;28;20048;-77
2023/07/15 00:49:35;;;;;;;4.78;2.70;;;23.00;59.50;;;;;;5092449;28;20088;-77
2023/07/15 00:52:10;;;;;;;3.80;2.25;;;22.90;59.90;;;;;;5075634;28;20024;-77
2023/07/15 00:54:38;;;;;;;3.55;2.22;;;23.00;59.60;;;;;;5093477;28;20396;-77
2023/07/15 00:57:06;;;;;;;4.05;2.38;;;23.00;60.10;;;;;;5092208;28;20052;-77
2023/07/15 00:59:32;;;;;;;3.58;2.42;;;23.00;59.40;;;;;;5093250;28;20029;-77
2023/07/15 01:01:58;;;;;;;3.22;2.33;;;23.00;59.20;;;;;;5093381;28;20418;-77
2023/07/15 01:04:24;;;;;;;3.83;2.40;;;23.00;59.40;;;;;;5093325;28;20035;-77
2023/07/15 01:06:50;;;;;;;2.95;2.00;;;23.00;59.10;;;;;;5075350;28;20096;-77
2023/07/15 01:09:15;;;;;;;3.38;2.20;;;23.00;60.00;;;;;;5093216;28;20040;-77
2023/07/15 01:11:41;;;;;;;3.08;2.00;;;23.00;58.30;;;;;;5075452;28;20029;-77
2023/07/15 01:14:09;;;;;;;3.67;2.20;;;23.10;59.20;;;;;;5092145;28;20020;-77
2023/07/15 01:16:35;;;;;;;5.95;2.00;;;23.10;58.70;;;;;;5092079;28;20027;-77
2023/07/15 01:19:03;;;;;;;4.97;2.15;;;23.20;59.40;;;;;;5092088;28;20032;-77
2023/07/15 01:21:32;;;;;;;5.07;2.20;;;23.20;59.40;;;;;;5075469;28;20024;-77
2023/07/15 01:23:58;;;;;;;6.32;2.22;;;23.20;59.40;;;;;;5093113;28;20020;-77
2023/07/15 01:26:24;;;;;;;4.55;1.98;;;23.10;59.60;;;;;;5075279;28;20031;-77
2023/07/15 01:28:49;;;;;;;3.95;2.25;;;23.10;59.20;;;;;;5092110;28;20379;-77
2023/07/15 01:31:16;;;;;;;3.53;2.20;;;23.10;59.30;;;;;;5075289;28;20024;-77
2023/07/15 01:33:42;;;;;;;3.47;2.08;;;23.20;58.80;;;;;;5091793;28;20029;-77
2023/07/15 01:36:07;;;;;;;2.45;1.95;;;23.10;58.80;;;;;;5092337;28;20039;-77
2023/07/15 01:38:33;;;;;;;3.13;2.30;;;23.10;59.20;;;;;;5096792;28;20032;-77
2023/07/15 01:40:59;;;;;;;3.88;2.13;;;23.10;58.90;;;;;;5095852;28;20052;-77
2023/07/15 01:43:24;;;;;;;3.13;2.10;;;23.00;58.90;;;;;;5078930;28;20024;-77
2023/07/15 01:45:50;;;;;;;3.33;2.00;;;23.00;59.30;;;;;;5095463;28;20188;-78
2023/07/15 01:48:16;;;;;;;6.68;2.25;;;23.00;59.10;;;;;;5095726;28;20032;-77
2023/07/15 01:50:42;;;;;;;3.42;2.22;;;23.00;59.20;;;;;;5095739;28;20028;-77
2023/07/15 01:53:08;;;;;;;4.63;2.42;;;23.00;59.40;;;;;;5096566;28;20020;-76
2023/07/15 01:55:34;;;;;;;3.88;2.45;;;23.00;59.60;;;;;;5078768;28;20024;-77
2023/07/15 01:58:01;;;;;;;7.97;2.60;;;23.00;59.50;;;;;;5095381;28;20490;-77
2023/07/15 02:00:27;;;;;;;3.17;2.25;;;23.00;59.80;;;;;;5095356;28;20025;-77
2023/07/15 02:02:53;;;;;;;2.63;2.13;;;22.90;59.80;;;;;;5096468;28;20138;-77
2023/07/15 02:05:19;;;;;;;3.25;2.15;;;22.90;60.70;;;;;;5096284;28;20080;-77
2023/07/15 02:07:45;;;;;;;3.35;2.00;;;22.80;59.90;;;;;;5095232;28;20016;-77
2023/07/15 02:10:10;;;;;;;5.15;2.35;;;22.80;59.70;;;;;;5078585;28;20021;-77
2023/07/15 02:12:36;;;;;;;5.30;2.40;;;22.80;59.70;;;;;;5095275;28;20029;-77
2023/07/15 02:15:03;;;;;;;3.50;2.17;;;22.60;60.20;;;;;;5096108;28;20035;-77
2023/07/15 02:17:28;;;;;;;4.55;2.15;;;22.60;60.50;;;;;;5095046;28;20025;-77
2023/07/15 02:19:57;;;;;;;4.55;2.28;;;22.60;60.40;;;;;;5078362;28;20036;-77
2023/07/15 02:22:23;;;;;;;6.78;2.63;;;22.50;60.60;;;;;;5095013;28;20568;-77
2023/07/15 02:24:48;;;;;;;3.42;2.25;;;22.40;61.00;;;;;;5095087;28;20123;-77
2023/07/15 02:27:16;;;;;;;3.67;2.10;;;22.30;61.30;;;;;;5078206;28;20029;-77
2023/07/15 02:29:42;;;;;;;6.30;2.22;;;22.30;61.60;;;;;;5095870;28;20025;-76
2023/07/15 02:32:08;;;;;;;4.90;2.30;;;22.40;61.90;;;;;;5095827;28;20024;-77
2023/07/15 02:34:34;;;;;;;4.03;2.50;;;22.40;61.90;;;;;;5078004;28;20383;-77
2023/07/15 02:37:01;;;;;;;4.07;2.58;;;22.40;62.00;;;;;;5094655;28;20037;-77
2023/07/15 02:39:26;;;;;;;2.88;2.20;;;22.40;62.50;;;;;;5078203;28;20040;-77
2023/07/15 02:41:52;;;;;;;5.78;2.47;;;22.40;62.70;;;;;;5094705;28;20043;-76
2023/07/15 02:44:17;;;;;;;3.60;2.40;;;22.40;62.60;;;;;;5095612;28;20078;-77
2023/07/15 02:46:43;;;;;;;3.42;2.30;;;22.40;62.40;;;;;;5095318;28;20102;-77
2023/07/15 02:49:09;;;;;;;7.28;2.60;;;22.40;62.80;;;;;;5076657;28;20050;-77
2023/07/15 02:51:34;;;;;;;3.60;2.28;;;22.30;62.70;;;;;;5094543;28;20032;-77
2023/07/15 02:54:01;;;;;;;7.53;2.30;;;22.30;62.90;;;;;;5094576;28;20043;-77
2023/07/15 02:56:27;;;;;;;7.47;2.70;;;22.30;63.10;;;;;;5094371;28;20020;-77
2023/07/15 02:58:53;;;;;;;3.30;2.38;;;22.30;63.00;;;;;;5094266;28;20517;-77
2023/07/15 03:01:20;;;;;;;5.68;2.40;;;22.20;62.90;;;;;;5077870;28;20041;-77
2023/07/15 03:03:46;;;;;;;3.85;2.58;;;22.10;63.20;;;;;;5077440;28;20028;-77
2023/07/15 03:06:12;;;;;;;5.65;2.72;;;22.10;63.30;;;;;;5094214;28;20047;-78
2023/07/15 03:08:38;;;;;;;4.55;2.38;;;22.00;63.40;;;;;;5094202;28;20017;-77
2023/07/15 03:11:07;;;;;;;6.45;2.85;;;21.90;63.90;;;;;;5094065;28;20031;-77
2023/07/15 03:13:33;;;;;;;4.70;2.50;;;21.80;64.30;;;;;;5094236;28;20033;-77
2023/07/15 03:15:58;;;;;;;5.57;2.63;;;21.70;64.70;;;;;;5094999;28;20024;-77
2023/07/15 03:18:28;;;;;;;6.25;2.90;;;21.70;64.60;;;;;;5094934;28;20039;-76
2023/07/15 03:20:54;;;;;;;5.25;3.00;;;21.70;64.60;;;;;;5094855;28;20040;-77
2023/07/15 03:23:20;;;;;;;4.57;2.50;;;21.70;64.50;;;;;;5094828;28;20029;-77
2023/07/15 03:25:45;;;;;;;3.58;2.55;;;21.70;64.80;;;;;;5076991;28;20029;-77
2023/07/15 03:28:11;;;;;;;5.10;2.58;;;21.70;64.90;;;;;;5093804;28;20036;-76
2023/07/15 03:30:37;;;;;;;4.43;3.15;;;21.80;65.20;;;;;;5093824;28;20031;-77
2023/07/15 03:33:05;;;;;;;4.60;2.65;;;21.80;66.00;;;;;;5076971;28;20033;-77
2023/07/15 03:35:31;;;;;;;6.72;2.75;;;21.90;65.60;;;;;;5094534;28;20051;-77
2023/07/15 03:37:57;;;;;;;4.10;2.50;;;21.80;65.50;;;;;;5093543;28;20499;-77
2023/07/15 03:40:23;;;;;;;7.50;2.80;;;21.60;65.60;;;;;;5093629;28;20027;-77
2023/07/15 03:42:48;;;;;;;9.82;2.80;;;21.50;65.90;;;;;;5076872;28;20028;-77
2023/07/15 03:45:14;;;;;;;4.32;2.88;;;21.50;66.10;;;;;;5076767;28;20023;-77
2023/07/15 03:47:40;;;;;;;5.90;2.90;;;21.50;66.20;;;;;;5093210;28;20048;-77
2023/07/15 03:50:09;;;;;;;4.22;2.78;;;21.40;66.20;;;;;;5093332;28;20017;-77
2023/07/15 03:52:35;;;;;;;6.55;2.40;;;21.30;66.30;;;;;;5094201;28;20031;-77
2023/07/15 03:55:02;;;;;;;4.93;2.60;;;21.30;66.90;;;;;;5093285;28;20017;-77
2023/07/15 03:57:27;;;;;;;6.38;3.10;;;21.30;67.10;;;;;;5076622;28;20025;-77
2023/07/15 03:59:53;;;;;;;7.20;2.60;;;21.30;67.10;;;;;;5093135;28;20062;-77
2023/07/15 04:02:19;;;;;;;6.05;2.75;;;21.30;67.40;;;;;;5093177;28;20107;-77
2023/07/15 04:04:46;;;;;;;8.60;2.90;;;21.30;68.20;;;;;;5093998;28;20092;-76
2023/07/15 04:07:12;;;;;;;5.30;3.38;;;21.40;68.80;;;;;;5076337;28;20044;-78
2023/07/15 04:09:38;;;;;;;4.80;2.88;;;21.40;69.20;;;;;;5093908;28;20017;-77
2023/07/15 04:12:05;;;;;;;3.58;2.72;;;21.50;69.30;;;;;;5092979;28;20055;-77
2023/07/15 04:14:31;;;;;;;5.40;2.80;;;21.50;68.40;;;;;;5092925;28;20021;-77
2023/07/15 04:16:56;;;;;;;4.43;3.00;;;21.40;68.30;;;;;;5076220;28;20040;-77
2023/07/15 04:19:22;;;;;;;7.93;3.08;;;21.40;68.40;;;;;;5092811;28;20039;-77
2023/07/15 04:21:48;;;;;;;7.47;3.20;;;21.30;68.80;;;;;;5076008;28;20040;-77
2023/07/15 04:24:13;;;;;;;6.90;3.28;;;21.30;69.80;;;;;;5092709;28;20053;-76
2023/07/15 04:26:39;;;;;;;4.25;3.08;;;21.30;69.70;;;;;;5093727;28;20036;-77
2023/07/15 04:29:06;;;;;;;6.22;2.97;;;21.30;69.20;;;;;;5093666;28;20032;-77
2023/07/15 04:31:32;;;;;;;4.10;3.00;;;21.30;70.80;;;;;;5076025;28;20193;-77
2023/07/15 04:33:57;;;;;;;5.82;2.75;;;21.20;69.40;;;;;;5092598;28;20029;-78
2023/07/15 04:36:23;;;;;;;6.18;3.08;;;21.20;69.30;;;;;;5092581;28;20040;-77
2023/07/15 04:38:49;;;;;;;3.47;2.78;;;21.20;68.90;;;;;;5092584;28;20111;-78
2023/07/15 04:41:15;;;;;;;5.80;3.30;;;21.10;68.80;;;;;;5092615;28;20048;-77
2023/07/15 04:43:40;;;;;;;5.20;2.90;;;21.10;69.20;;;;;;5075593;28;20036;-78
2023/07/15 04:46:06;;;;;;;7.38;2.83;;;20.90;69.70;;;;;;5093310;28;20506;-78
2023/07/15 04:48:33;;;;;;;4.55;2.80;;;20.90;70.20;;;;;;5092427;28;20038;-78
2023/07/15 04:50:59;;;;;;;9.00;3.25;;;20.90;70.00;;;;;;5092446;28;20020;-78
2023/07/15 04:53:25;;;;;;;8.25;2.97;;;21.00;70.10;;;;;;5092529;28;20040;-77
2023/07/15 04:55:51;;;;;;;4.43;2.60;;;21.10;70.10;;;;;;5092301;28;20020;-77
2023/07/15 04:58:18;;;;;;;4.93;3.13;;;21.10;69.80;;;;;;5092319;28;20028;-77
2023/07/15 05:00:48;;;;;;;4.10;2.72;;;21.10;69.60;;;;;;5092302;28;20104;-78
2023/07/15 05:03:14;;;;;;;5.03;2.97;;;21.10;70.00;;;;;;5093324;28;20021;-77
2023/07/15 05:05:41;;;;;;;5.90;2.80;;;21.10;69.90;;;;;;5093151;28;20049;-77
2023/07/15 05:08:12;;;;;;;5.05;3.65;;;21.10;70.10;;;;;;5092258;28;20047;-77
2023/07/15 05:10:38;;;;;;;6.15;3.10;;;21.20;70.80;;;;;;5093247;28;20055;-78
2023/07/15 05:13:04;;;;;;;5.72;3.33;;;21.10;70.90;;;;;;5095985;28;20066;-78
2023/07/15 05:15:30;;;;;;;5.25;2.80;;;21.10;71.10;;;;;;5096380;28;20024;-77
2023/07/15 05:17:56;;;;;;;5.72;2.90;;;21.10;71.10;;;;;;5096324;28;20039;-78
2023/07/15 05:20:22;;;;;;;6.18;2.70;;;21.20;72.30;;;;;;5096308;28;20040;-77
2023/07/15 05:22:48;;;;;;;5.97;3.00;;;21.20;71.70;;;;;;5079565;28;20021;-77
2023/07/15 05:25:15;;;;;;;4.65;2.80;;;21.20;72.00;;;;;;5097166;28;20066;-77
2023/07/15 05:27:41;;;;;;;6.10;2.88;;;21.30;71.90;;;;;;5097016;28;20021;-77
2023/07/15 05:30:08;;;;;;;5.32;2.90;;;21.40;72.60;;;;;;5096135;28;20066;-78
2023/07/15 05:32:34;;;;;;;5.95;2.67;;;21.40;72.80;;;;;;5079404;28;20028;-78
2023/07/15 05:34:59;;;;;;;5.30;2.78;;;21.40;72.10;;;;;;5096843;28;20027;-77
2023/07/15 05:37:25;;;;;;;4.70;2.75;;;21.50;71.80;;;;;;5079233;28;20052;-77
2023/07/15 05:39:50;;;;;;;5.78;2.95;;;21.50;71.30;;;;;;5097098;28;20092;-77
2023/07/15 05:42:17;;;;;;;5.13;3.00;;;21.60;71.00;;;;;;5095888;28;20064;-78
2023/07/15 05:44:42;;;;;;;11.15;3.30;;;21.60;70.90;;;;;;5095745;28;20024;-77
2023/07/15 05:47:08;;;;;;;5.25;2.90;;;21.70;71.10;;;;;;5095342;28;20109;-76
2023/07/15 05:49:33;;;;;;;6.78;3.00;;;21.70;71.40;;;;;;5095690;28;20037;-77
2023/07/15 05:51:59;;;;;;;7.55;2.90;;;21.80;71.40;;;;;;5095706;28;20020;-77
2023/07/15 05:54:25;;;;;;;5.35;2.78;;;21.80;71.10;;;;;;5095615;28;20025;-77
2023/07/15 05:56:50;;;;;;;4.20;2.67;;;21.80;71.80;;;;;;5078878;28;20017;-78
2023/07/15 05:59:16;;;;;;;6.00;3.20;;;21.80;70.60;;;;;;5095534;28;20490;-77
2023/07/15 06:01:41;;;;;;;5.65;3.10;;;21.90;70.90;;;;;;5096432;28;20044;-77
2023/07/15 06:04:08;;;;;;;6.70;3.20;;;21.90;70.80;;;;;;5095507;28;20054;-77
2023/07/15 06:06:34;;;;;;;3.65;2.83;;;22.00;70.80;;;;;;5095369;28;20044;-78
2023/07/15 06:08:59;;;;;;;9.68;2.75;;;21.90;70.30;;;;;;5095311;28;20415;-77
2023/07/15 06:11:25;;;;;;;4.70;3.17;;;22.00;70.00;;;;;;5095352;28;20039;-77
2023/07/15 06:13:51;;;;;;;6.47;3.30;;;22.00;70.20;;;;;;5078503;28;20031;-77
2023/07/15 06:16:16;;;;;;;7.93;3.60;;;22.10;69.70;;;;;;5078430;28;20062;-77
2023/07/15 06:18:42;;;;;;;5.35;3.13;;;22.20;69.80;;;;;;5078376;28;20092;-77
2023/07/15 06:21:08;;;;;;;6.45;3.55;;;22.20;70.30;;;;;;5078359;28;20032;-77
2023/07/15 06:23:33;;;;;;;5.85;3.67;;;22.20;70.50;;;;;;5096050;28;20028;-77
2023/07/15 06:25:59;;;;;;;8.40;4.10;;;22.30;71.70;;;;;;5094952;28;20025;-77
2023/07/15 06:28:25;;;;;;;7.85;3.65;;;22.30;71.00;;;;;;5078291;28;20016;-77
2023/07/15 06:31:01;;;;;;;5.28;3.55;;;22.40;70.80;;;;;;5095886;28;20046;-77
2023/07/15 06:33:27;;;;;;;4.30;3.08;;;22.50;71.00;;;;;;5095801;28;20021;-78
2023/07/15 06:35:53;;;;;;;5.07;3.35;;;22.50;70.20;;;;;;5094764;28;20032;-79
2023/07/15 06:38:18;;;;;;;7.32;3.45;;;22.50;69.50;;;;;;5094800;28;20029;-76
2023/07/15 06:40:44;;;;;;;6.85;3.50;;;22.50;69.40;;;;;;5094662;28;20105;-78
2023/07/15 06:43:09;;;;;;;4.57;3.30;;;22.60;69.50;;;;;;5094742;28;20059;-78
2023/07/15 06:45:35;;;;;;;4.75;3.33;;;22.60;69.30;;;;;;5095642;28;20096;-78
2023/07/15 06:48:02;;;;;;;5.75;3.60;;;22.70;70.00;;;;;;5077657;28;20048;-77
2023/07/15 06:50:28;;;;;;;5.35;3.58;;;22.70;69.40;;;;;;5094489;28;20025;-77
2023/07/15 06:52:54;;;;;;;4.88;3.17;;;22.80;70.00;;;;;;5094555;28;20043;-79
2023/07/15 06:55:21;;;;;;;6.18;3.20;;;22.70;71.00;;;;;;5094494;28;20028;-78
2023/07/15 06:57:47;;;;;;;4.10;2.90;;;22.70;71.00;;;;;;5094724;28;20028;-77
2023/07/15 07:00:13;;;;;;;4.75;2.78;;;22.70;71.30;;;;;;5094374;28;20032;-78
2023/07/15 07:02:39;;;;;;;5.75;2.80;;;22.70;72.40;;;;;;5094218;28;20487;-77
2023/07/15 07:05:04;;;;;;;3.97;2.28;;;22.80;73.20;;;;;;5077602;28;20051;-80
2023/07/15 07:07:30;;;;;;;5.00;2.63;;;22.90;73.20;;;;;;5094150;28;20033;-77
2023/07/15 07:09:56;;;;;;;5.25;2.30;;;23.00;74.50;;;;;;5077545;28;20028;-81
2023/07/15 07:12:22;;;;;;;4.90;2.53;;;23.00;74.50;;;;;;5094107;28;20029;-79
2023/07/15 07:14:48;;;;;;;4.13;2.40;;;23.10;74.20;;;;;;5077444;28;20021;-77
2023/07/15 07:17:14;;;;;;;2.88;2.30;;;23.10;74.90;;;;;;5094036;28;20016;-76
2023/07/15 07:19:39;;;;;;;3.70;2.22;;;23.10;74.60;;;;;;5093913;28;20054;-77
2023/07/15 07:22:05;;;;;;;3.60;2.30;;;23.10;74.10;;;;;;5077078;28;20032;-78
2023/07/15 07:24:31;;;;;;;3.03;2.03;;;23.10;75.20;;;;;;5093847;28;20029;-77
2023/07/15 07:26:57;;;;;;;2.97;2.10;;;23.20;75.30;;;;;;5094754;28;20084;-77
2023/07/15 07:29:23;;;;;;;3.13;2.10;;;23.20;75.30;;;;;;5077205;28;20016;-78
2023/07/15 07:31:49;;;;;;;5.18;2.60;;;23.30;75.50;;;;;;5093962;28;20032;-77
2023/07/15 07:34:15;;;;;;;7.28;2.65;;;23.30;75.30;;;;;;5094028;28;20076;-77
2023/07/15 07:36:40;;;;;;;3.20;1.80;;;23.30;76.10;;;;;;5093729;28;20036;-77
2023/07/15 07:39:07;;;;;;;4.03;2.10;;;23.30;75.90;;;;;;5093611;28;20055;-77
2023/07/15 07:41:32;;;;;;;3.53;2.60;;;23.30;75.50;;;;;;5076863;28;20041;-77
2023/07/15 07:43:58;;;;;;;7.15;2.55;;;23.40;75.90;;;;;;5093452;28;20059;-78
2023/07/15 07:46:23;;;;;;;2.72;1.90;;;23.50;77.00;;;;;;5093333;28;20048;-77
2023/07/15 07:48:49;;;;;;;4.45;1.92;;;23.60;74.80;;;;;;5093111;28;20100;-77
2023/07/15 07:51:14;;;;;;;2.97;2.10;;;23.60;74.80;;;;;;5093345;28;20036;-78
2023/07/15 07:53:40;;;;;;;3.30;1.88;;;23.70;75.30;;;;;;5093396;28;20036;-77
2023/07/15 07:56:06;;;;;;;3.88;2.30;;;23.70;74.30;;;;;;5076466;28;20032;-78
2023/07/15 07:58:32;;;;;;;3.20;2.10;;;23.70;74.00;;;;;;5076489;28;20029;-78
2023/07/15 08:00:58;;;;;;;3.25;2.30;;;23.70;73.90;;;;;;5094036;28;20050;-77
2023/07/15 08:03:24;;;;;;;4.82;2.28;;;23.70;73.80;;;;;;5076330;28;20029;-77
2023/07/15 08:05:50;;;;;;;3.50;1.45;;;23.70;74.30;;;;;;5076347;28;20026;-77
2023/07/15 08:08:16;;;;;;;3.65;2.95;;;23.70;74.50;;;;;;5092989;28;20020;-77
2023/07/15 08:10:42;;;;;;;1.67;1.25;;;23.70;75.20;;;;;;5093074;28;20042;-78
2023/07/15 08:13:08;;;;;;;5.82;4.82;;;23.80;74.60;;;;;;5076349;28;20082;-78
2023/07/15 08:15:37;;;;;;;2.63;2.00;;;23.80;75.40;;;;;;5093886;28;20066;-77
2023/07/15 08:18:03;;;;;;;4.72;1.88;;;23.90;75.50;;;;;;5093796;28;20028;-78
2023/07/15 08:20:29;;;;;;;2.85;2.50;;;23.90;75.80;;;;;;5076111;28;20048;-78
2023/07/15 08:22:55;;;;;;;3.17;1.75;;;24.00;75.90;;;;;;5093696;28;20029;-77
2023/07/15 08:25:21;;;;;;;2.47;1.50;;;24.00;75.70;;;;;;5092716;28;20112;-77
2023/07/15 08:27:47;;;;;;;1.50;1.30;;;24.10;76.90;;;;;;5093558;28;20025;-77
2023/07/15 08:30:13;;;;;;;2.63;1.90;;;24.10;76.90;;;;;;5092674;28;20031;-77
2023/07/15 08:32:38;;;;;;;2.83;1.45;;;24.20;76.80;;;;;;5092526;28;20108;-75
2023/07/15 08:35:05;;;;;;;7.75;5.03;;;24.20;76.50;;;;;;5092648;28;20050;-78
2023/07/15 08:37:30;;;;;;;4.65;3.10;;;24.20;76.20;;;;;;5093542;28;20028;-76
2023/07/15 08:39:56;;;;;;;6.30;3.78;;;24.20;77.10;;;;;;5075822;28;20096;-77
2023/07/15 08:42:23;;;;;;;4.47;2.53;;;24.30;76.70;;;;;;5093498;28;20051;-79
2023/07/15 08:44:52;;;;;;;4.00;2.53;;;24.40;77.10;;;;;;5075816;28;20055;-78
2023/07/15 08:47:21;;;;;;;4.18;2.00;;;24.40;74.90;;;;;;5092300;28;20033;-78
2023/07/15 08:49:51;;;;;;;3.75;1.50;;;24.40;75.20;;;;;;5093368;28;20020;-78
2023/07/15 08:52:23;;;;;;;2.25;1.33;;;24.50;74.50;;;;;;5093374;28;20016;-78
2023/07/15 08:54:49;;;;;;;;;;;24.40;75.20;;;;;;5093913;28;20027;-79
2023/07/15 08:57:19;;;;;;;1.95;1.40;;;24.30;74.50;;;;;;5092260;28;19905;-79
2023/07/15 08:59:47;;;;;;;4.60;1.55;;;24.30;74.40;;;;;;5093281;28;20028;-79
2023/07/15 09:02:12;;;;;;;1.70;1.42;;;24.30;74.90;;;;;;5092354;28;20028;-78
2023/07/15 09:04:39;;;;;;;3.53;1.38;;;24.30;74.30;;;;;;5075641;28;20032;-78
2023/07/15 09:07:05;;;;;;;3.05;1.40;;;24.30;74.50;;;;;;5075629;28;20138;-78
2023/07/15 09:09:36;;;;;;;2.78;1.30;;;24.20;74.10;;;;;;5092430;28;20029;-78
2023/07/15 09:12:04;;;;;;;3.22;1.55;;;24.20;74.40;;;;;;5093383;28;20021;-79
2023/07/15 09:14:29;;;;;;;2.50;1.48;;;24.20;74.80;;;;;;5092186;28;20038;-79
2023/07/15 09:16:59;;;;;;;3.75;2.40;;;24.30;74.70;;;;;;5093193;28;20025;-78
2023/07/15 09:19:28;;;;;;;2.97;1.73;;;24.20;74.10;;;;;;5092274;28;20088;-78
2023/07/15 09:22:03;;;;;;;4.13;1.77;;;24.30;74.40;;;;;;5092064;28;20028;-78
2023/07/15 09:24:31;;;;;;;5.32;1.95;;;24.20;74.00;;;;;;5092078;28;20021;-78
2023/07/15 09:26:59;;;;;;;5.47;2.88;;;24.10;73.70;;;;;;5093146;28;20093;-78
2023/07/15 09:29:24;;;;;;;3.72;1.70;;;24.00;72.20;;;;;;5092073;28;20055;-78
2023/07/15 09:31:50;;;;;;;6.88;1.83;;;23.90;72.30;;;;;;5075450;28;20387;-79
2023/07/15 09:34:17;;;;;;;4.15;1.58;;;23.90;72.40;;;;;;5093013;28;20036;-78
2023/07/15 09:36:42;;;;;;;4.88;1.88;;;23.90;71.60;;;;;;5092015;28;20031;-79
2023/07/15 09:39:15;;;;;;;2.92;2.22;;;23.90;71.80;;;;;;5091923;28;20044;-78
2023/07/15 09:41:41;;;;;;;2.88;1.70;;;23.90;72.20;;;;;;5092055;28;20016;-79
2023/07/15 09:44:08;;;;;;;5.65;2.90;;;23.90;72.00;;;;;;5091921;28;20025;-79
2023/07/15 09:46:34;;;;;;;4.47;1.75;;;24.00;72.50;;;;;;5091618;28;20029;-78
2023/07/15 09:49:00;;;;;;;2.42;1.90;;;24.00;72.30;;;;;;5092965;28;20062;-78
2023/07/15 09:51:26;;;;;;;3.78;2.03;;;23.90;72.40;;;;;;5091906;28;20029;-78
2023/07/15 09:53:53;;;;;;;2.75;1.70;;;23.90;72.50;;;;;;5091762;28;20028;-78
2023/07/15 09:56:26;;;;;;;2.92;1.80;;;23.90;72.20;;;;;;5091713;28;20025;-79
2023/07/15 09:58:54;;;;;;;2.75;1.92;;;23.90;73.20;;;;;;5094880;28;20025;-78
2023/07/15 10:01:37;;;;;;;4.32;1.98;;;23.90;73.50;;;;;;5095402;28;20017;-78
2023/07/15 10:04:35;;;;;;;3.67;2.45;;;23.80;73.50;;;;;;5096418;28;20039;-78
2023/07/15 10:07:02;;;;;;;3.88;1.60;;;23.80;73.80;;;;;;5096532;28;20087;-79
2023/07/15 10:09:30;;;;;;;4.30;1.77;;;23.80;74.10;;;;;;5095500;28;20024;-78
2023/07/15 10:11:56;;;;;;;5.82;1.80;;;23.80;74.70;;;;;;5096216;28;20066;-79
2023/07/15 10:14:22;;;;;;;4.15;1.67;;;23.90;75.60;;;;;;5078591;28;20021;-78
2023/07/15 10:17:11;;;;;;;4.80;1.75;;;24.00;75.20;;;;;;5095315;28;20033;-79
2023/07/15 10:19:47;;;;;;;3.28;1.95;;;24.00;74.80;;;;;;5095189;28;20029;-79
2023/07/15 10:22:16;;;;;;;3.25;1.70;;;24.00;75.40;;;;;;5096102;28;20033;-78
2023/07/15 10:24:43;;;;;;;2.90;1.50;;;24.00;73.80;;;;;;5095059;28;20017;-79
2023/07/15 10:27:11;;;;;;;2.63;1.40;;;23.90;75.00;;;;;;5094873;28;20033;-79
2023/07/15 10:29:40;;;;;;;2.50;1.60;;;23.90;74.30;;;;;;5095929;28;20032;-79
2023/07/15 10:32:13;;;;;;;2.63;1.60;;;23.90;74.20;;;;;;5094846;28;20020;-78
2023/07/15 10:34:41;;;;;;;3.78;1.98;;;23.90;73.90;;;;;;5094743;28;20055;-78
2023/07/15 10:37:11;;;;;;;3.10;1.48;;;23.90;73.40;;;;;;5095749;28;20028;-78
2023/07/15 10:39:37;;;;;;;4.82;1.60;;;23.80;73.30;;;;;;5094860;28;20028;-78
2023/07/15 10:42:21;;;;;;;4.75;1.50;;;23.80;73.70;;;;;;5077924;28;20123;-78
2023/07/15 10:44:54;;;;;;;3.83;1.73;;;23.80;73.90;;;;;;5095706;28;20034;-78
2023/07/15 10:47:21;;;;;;;2.25;1.30;;;23.80;74.60;;;;;;5077758;28;20040;-78
2023/07/15 10:49:48;;;;;;;3.28;1.60;;;23.80;74.70;;;;;;5095578;28;20029;-79
2023/07/15 10:52:18;;;;;;;3.75;1.70;;;23.70;74.50;;;;;;5095491;28;20020;-79
2023/07/15 10:54:44;;;;;;;4.68;1.65;;;23.80;74.30;;;;;;5095447;28;20012;-79
2023/07/15 10:57:11;;;;;;;3.75;1.70;;;23.80;74.50;;;;;;5095430;28;20024;-79
2023/07/15 10:59:39;;;;;;;4.32;1.50;;;23.80;75.10;;;;;;5094350;28;20020;-79
2023/07/15 11:02:06;;;;;;;4.47;1.58;;;23.90;74.30;;;;;;5095316;28;20024;-79
2023/07/15 11:04:33;;;;;;;3.05;1.45;;;23.90;74.50;;;;;;5094366;28;20048;-80
2023/07/15 11:07:01;;;;;;;2.00;1.40;;;23.90;73.70;;;;;;5077654;28;20040;-80
2023/07/15 11:09:27;;;;;;;2.97;1.77;;;23.90;73.40;;;;;;5094189;28;20055;-79
2023/07/15 11:11:53;;;;;;;2.85;1.30;;;23.90;73.90;;;;;;5094066;28;20050;-79
2023/07/15 11:14:19;;;;;;;2.72;1.50;;;23.90;73.60;;;;;;5094999;28;20036;-80
2023/07/15 11:16:45;;;;;;;2.50;1.40;;;23.80;73.30;;;;;;5095160;28;20023;-76
2023/07/15 11:19:15;;;;;;;2.10;1.50;;;23.80;73.70;;;;;;5093985;28;20064;-79
2023/07/15 11:21:43;;;;;;;2.35;1.33;;;23.70;73.70;;;;;;5093997;28;20552;-79
2023/07/15 11:24:13;;;;;;;3.08;1.40;;;23.60;74.40;;;;;;5077532;28;20055;-79
2023/07/15 11:26:40;;;;;;;2.83;1.60;;;23.60;74.80;;;;;;5093779;28;20134;-79
2023/07/15 11:29:18;;;;;;;1.88;1.35;;;23.50;74.60;;;;;;5093824;28;20028;-78
2023/07/15 11:31:46;;;;;;;2.63;1.58;;;23.50;74.50;;;;;;5094763;28;20031;-79
2023/07/15 11:34:12;;;;;;;2.83;1.40;;;23.50;74.70;;;;;;5094591;28;20028;-79
2023/07/15 11:36:38;;;;;;;3.40;1.75;;;23.50;74.80;;;;;;5076979;28;20096;-79
2023/07/15 11:39:05;;;;;;;3.58;1.77;;;23.50;75.40;;;;;;5093603;28;20025;-79
2023/07/15 11:41:36;;;;;;;3.42;1.60;;;23.60;76.20;;;;;;5093697;28;20092;-79
2023/07/15 11:44:15;;;;;;;4.93;1.65;;;23.50;76.50;;;;;;5093664;28;20039;-78
2023/07/15 11:46:45;;;;;;;2.78;1.52;;;23.50;77.60;;;;;;5094223;28;20023;-79
2023/07/15 11:49:11;;;;;;;2.33;1.63;;;23.50;78.20;;;;;;5094450;28;20084;-79
2023/07/15 11:51:41;;;;;;;2.22;1.55;;;23.60;78.10;;;;;;5093519;28;20024;-78
2023/07/15 11:54:11;;;;;;;4.25;2.00;;;23.60;78.60;;;;;;5093448;28;20020;-79
2023/07/15 11:56:38;;;;;;;3.25;1.77;;;23.60;77.70;;;;;;5094316;28;20092;-81
2023/07/15 11:59:10;;;;;;;2.08;1.73;;;23.60;77.90;;;;;;5093432;28;20042;-80
2023/07/15 12:01:37;;;;;;;6.07;2.13;;;23.70;78.30;;;;;;5076727;28;20025;-81
2023/07/15 12:04:16;;;;;;;4.22;1.73;;;23.80;79.30;;;;;;5093442;28;20029;-81
2023/07/15 12:06:51;;;;;;;3.78;1.80;;;23.90;78.60;;;;;;5093137;28;20495;-81
2023/07/15 12:09:17;;;;;;;2.53;1.90;;;23.90;78.40;;;;;;5094057;28;20021;-81
2023/07/15 12:11:43;;;;;;;3.95;2.28;;;24.00;78.70;;;;;;5094039;28;20028;-81
2023/07/15 12:14:09;;;;;;;3.90;1.73;;;24.10;78.20;;;;;;5094086;28;20091;-80
2023/07/15 12:16:36;;;;;;;3.88;1.90;;;24.20;78.50;;;;;;5093213;28;20032;-80
2023/07/15 12:19:03;;;;;;;3.72;1.85;;;24.30;78.60;;;;;;5094150;28;20077;-79
2023/07/15 12:21:30;;;;;;;5.47;1.80;;;24.40;78.20;;;;;;5093785;28;20045;-79
2023/07/15 12:23:56;;;;;;;3.17;1.75;;;24.50;77.30;;;;;;5093010;28;20033;-79
2023/07/15 12:26:22;;;;;;;4.63;3.13;;;24.60;77.20;;;;;;5092642;28;20048;-79
2023/07/15 12:28:48;;;;;;;3.85;2.47;;;24.70;77.00;;;;;;5092663;28;20013;-79
2023/07/15 12:31:15;;;;;;;2.75;2.13;;;24.90;78.60;;;;;;5092743;28;20021;-79
2023/07/15 12:33:41;;;;;;;5.45;3.55;;;25.10;77.60;;;;;;5075966;28;20074;-79
2023/07/15 12:36:12;;;;;;;4.90;1.92;;;25.20;76.80;;;;;;5092662;28;20036;-79
2023/07/15 12:38:38;;;;;;;4.32;2.05;;;25.20;74.10;;;;;;5076352;28;20021;-79
2023/07/15 12:41:05;;;;;;;3.88;2.10;;;25.10;75.00;;;;;;5093612;28;20032;-78
2023/07/15 12:43:32;;;;;;;2.90;1.75;;;25.10;75.50;;;;;;5092732;28;20040;-79
2023/07/15 12:45:59;;;;;;;2.58;2.03;;;25.00;74.40;;;;;;5093432;28;20020;-79